Time;durP1;ratioP1;P1;durP2;ratioP2;P2;SDS_P1;SDS_P2;PMS_P1;PMS_P2;Temp;Humidity;BMP_temperature;BMP_pressure;BME280_temperature;BME280_humidity;BME280_pressure;Samples;Min_cycle;Max_cycle;Signal;HPM_P1;HPM_P2
2023/06/21 00:00:42;;;;;;;18.02;14.98;;;;;;;24.19;71.43;99287.09;5052243;28;20027;-83
2023/06/21 00:03:07;;;;;;;15.52;14.02;;;;;;;24.24;72.06;99300.72;5054000;28;20053;-83
2023/06/21 00:05:33;;;;;;;16.08;14.60;;;;;;;24.24;71.93;99308.72;5053905;28;20369;-83
2023/06/21 00:07:59;;;;;;;16.40;14.63;;;;;;;24.19;72.64;99311.06;5052529;28;20040;-83
2023/06/21 00:10:25;;;;;;;17.27;15.68;;;;;;;23.99;72.70;99291.91;5053879;28;20029;-83
2023/06/21 00:12:52;;;;;;;15.57;14.18;;;;;;;24.07;72.87;99299.06;5053455;28;20481;-83
2023/06/21 00:15:17;;;;;;;14.40;13.05;;;;;;;24.07;72.87;99299.91;5053882;28;20036;-82
2023/06/21 00:17:43;;;;;;;15.63;14.10;;;;;;;24.01;73.16;99302.38;5053352;28;20029;-83
2023/06/21 00:20:10;;;;;;;16.08;14.48;;;;;;;23.71;73.46;99248.84;5053632;28;20028;-83
2023/06/21 00:22:36;;;;;;;17.05;15.40;;;;;;;23.94;73.48;99301.41;5051963;28;20035;-83
2023/06/21 00:25:01;;;;;;;16.35;14.80;;;;;;;23.90;73.58;99293.75;5053471;28;20367;-82
2023/06/21 00:27:27;;;;;;;17.35;15.63;;;;;;;23.89;73.98;99302.72;5053287;28;20029;-83
2023/06/21 00:29:52;;;;;;;15.57;14.15;;;;;;;23.82;73.96;99307.03;5053064;28;20032;-83
2023/06/21 00:32:18;;;;;;;15.23;13.82;;;;;;;23.77;74.19;99300.56;5051983;28;20051;-83
2023/06/21 00:34:46;;;;;;;17.55;15.75;;;;;;;23.75;74.22;99297.22;5053205;28;20120;-83
2023/06/21 00:37:11;;;;;;;16.10;14.70;;;;;;;23.72;74.41;99301.03;5051520;28;20097;-82
2023/06/21 00:39:37;;;;;;;16.33;14.82;;;;;;;23.64;74.67;99282.41;5053066;28;20470;-83
2023/06/21 00:42:02;;;;;;;17.73;15.93;;;;;;;23.63;75.34;99288.69;5053075;28;20389;-82
2023/06/21 00:44:28;;;;;;;17.02;15.52;;;;;;;23.55;75.29;99288.66;5052844;28;20078;-83
2023/06/21 00:46:53;;;;;;;18.13;16.33;;;;;;;23.68;75.83;99312.97;5052719;28;20104;-82
2023/06/21 00:49:18;;;;;;;18.67;16.88;;;;;;;23.36;76.07;99274.69;5052859;28;20017;-82
2023/06/21 00:51:45;;;;;;;16.92;15.23;;;;;;;23.25;76.63;99260.88;5051277;28;20392;-82
2023/06/21 00:54:16;;;;;;;17.67;16.08;;;;;;;23.52;76.62;99302.31;5052854;28;20016;-83
2023/06/21 00:56:45;;;;;;;17.77;16.08;;;;;;;23.36;76.75;99284.50;5052461;28;20079;-83
2023/06/21 00:59:11;;;;;;;18.55;16.85;;;;;;;23.49;76.83;99314.09;5052483;28;20021;-82
2023/06/21 01:01:37;;;;;;;19.17;17.48;;;;;;;23.28;77.46;99277.31;5051092;28;20056;-83
2023/06/21 01:04:04;;;;;;;16.98;15.38;;;;;;;23.40;77.49;99307.09;5051369;28;20020;-83
2023/06/21 01:06:37;;;;;;;17.10;15.50;;;;;;;23.41;78.09;99322.03;5052608;28;20059;-82
2023/06/21 01:09:21;;;;;;;18.10;16.35;;;;;;;23.34;78.18;99315.69;5052652;28;20541;-83
2023/06/21 01:12:21;;;;;;;18.40;16.50;;;;;;;23.21;78.44;99300.22;5051129;28;20763;-83
2023/06/21 01:14:59;;;;;;;16.65;15.15;;;;;;;23.20;79.08;99316.31;5049690;28;20069;-82
2023/06/21 01:17:31;;;;;;;18.42;16.52;;;;;;;23.22;79.22;99304.56;5050004;28;20542;-83
2023/06/21 01:19:57;;;;;;;17.23;15.63;;;;;;;23.16;79.54;99300.69;5049571;28;20075;-83
2023/06/21 01:22:22;;;;;;;17.30;15.57;;;;;;;23.24;79.32;99305.22;5049870;28;20090;-82
2023/06/21 01:25:22;;;;;;;18.42;16.42;;;;;;;23.18;79.52;99307.69;5032773;28;20115;-83
2023/06/21 01:27:53;;;;;;;17.42;15.63;;;;;;;23.16;79.84;99300.69;5049520;28;20021;-83
2023/06/21 01:30:20;;;;;;;;;;;;;;;23.09;80.08;99285.56;5050173;28;20052;-82
2023/06/21 01:32:47;;;;;;;18.70;16.80;;;;;;;23.12;80.60;99282.59;5049315;28;20376;-83
2023/06/21 01:35:14;;;;;;;17.70;15.90;;;;;;;23.07;80.19;99279.59;5049456;28;20045;-82
2023/06/21 01:37:42;;;;;;;15.50;13.98;;;;;;;22.96;80.26;99259.44;5049415;28;20089;-83
2023/06/21 01:40:10;;;;;;;17.00;15.40;;;;;;;22.86;80.21;99240.13;5049608;28;20124;-82
2023/06/21 01:42:36;;;;;;;17.95;16.13;;;;;;;22.91;80.26;99254.63;5049281;28;20120;-82
2023/06/21 01:45:02;;;;;;;17.40;15.60;;;;;;;22.99;80.55;99277.72;5049478;28;20128;-82
2023/06/21 01:47:28;;;;;;;17.75;15.95;;;;;;;23.00;80.29;99282.03;5048748;28;20029;-82
2023/06/21 01:49:53;;;;;;;16.83;15.23;;;;;;;22.89;80.34;99271.69;5032549;28;20056;-83
2023/06/21 01:52:19;;;;;;;17.60;15.88;;;;;;;22.98;80.81;99299.97;5044697;28;20492;-82
2023/06/21 01:54:45;;;;;;;16.23;14.70;;;;;;;22.96;80.83;99301.94;5050388;28;20025;-82
2023/06/21 01:57:14;;;;;;;17.10;15.38;;;;;;;22.94;80.85;99305.75;5051792;28;20028;-82
2023/06/21 01:59:41;;;;;;;18.70;16.73;;;;;;;22.77;81.20;99267.66;5050132;28;20074;-83
2023/06/21 02:02:08;;;;;;;17.67;15.85;;;;;;;22.66;80.88;99261.59;5052153;28;20035;-83
2023/06/21 02:04:35;;;;;;;17.63;16.00;;;;;;;22.72;81.11;99280.56;5051723;28;20024;-83
2023/06/21 02:07:02;;;;;;;17.90;16.15;;;;;;;22.81;81.50;99300.84;5051561;28;20536;-82
2023/06/21 02:09:27;;;;;;;18.60;16.88;;;;;;;22.64;81.69;99279.53;5051697;28;20495;-82
2023/06/21 02:11:53;;;;;;;16.70;15.15;;;;;;;22.74;81.90;99303.28;5051311;28;20025;-82
2023/06/21 02:14:19;;;;;;;17.15;15.60;;;;;;;22.75;81.70;99304.94;5050831;28;20032;-82
2023/06/21 02:16:45;;;;;;;17.85;16.23;;;;;;;22.71;81.88;99289.50;5051562;28;20025;-82
2023/06/21 02:19:10;;;;;;;19.45;17.52;;;;;;;22.55;81.94;99253.94;5051835;28;20051;-82
2023/06/21 02:21:37;;;;;;;17.33;15.73;;;;;;;22.60;82.53;99283.47;5051666;28;20032;-83
2023/06/21 02:24:04;;;;;;;20.42;17.00;;;;;;;22.43;82.64;99268.47;5051561;28;20084;-83
2023/06/21 02:26:29;;;;;;;20.60;17.30;;;;;;;22.56;83.12;99292.75;5051455;28;20400;-83
2023/06/21 02:28:54;;;;;;;17.00;15.40;;;;;;;22.54;83.06;99299.19;5049960;28;20087;-82
2023/06/21 02:31:20;;;;;;;18.02;16.33;;;;;;;22.35;83.35;99269.22;5050302;28;20021;-82
2023/06/21 02:33:45;;;;;;;18.45;16.55;;;;;;;22.50;83.24;99290.72;5051243;28;20059;-82
2023/06/21 02:36:11;;;;;;;16.95;15.35;;;;;;;22.51;83.03;99287.09;5050168;28;20025;-82
2023/06/21 02:38:36;;;;;;;17.98;16.35;;;;;;;22.63;82.73;99303.59;5051476;28;20069;-82
2023/06/21 02:41:01;;;;;;;19.13;17.05;;;;;;;22.34;83.23;99266.75;5051183;28;20036;-82
2023/06/21 02:43:27;;;;;;;18.90;17.10;;;;;;;22.28;83.22;99254.09;5051380;28;20021;-83
2023/06/21 02:45:53;;;;;;;17.45;15.85;;;;;;;22.43;83.51;99287.03;5051334;28;20017;-82
2023/06/21 02:48:19;;;;;;;18.85;16.98;;;;;;;22.48;83.34;99294.53;5051140;28;20558;-82
2023/06/21 02:50:44;;;;;;;18.42;15.77;;;;;;;22.24;83.07;99260.69;5051065;28;20025;-82
2023/06/21 02:53:10;;;;;;;16.88;15.25;;;;;;;22.48;83.56;99300.66;5051198;28;20384;-83
2023/06/21 02:55:35;;;;;;;18.88;16.88;;;;;;;22.27;83.55;99276.31;5051255;28;20022;-83
2023/06/21 02:58:00;;;;;;;17.52;15.88;;;;;;;22.27;83.20;99273.66;5049953;28;20086;-82
2023/06/21 03:00:29;;;;;;;17.92;16.23;;;;;;;22.40;83.14;99292.63;5054367;28;20029;-82
2023/06/21 03:03:02;;;;;;;18.27;16.48;;;;;;;22.51;83.38;99315.44;5053474;28;20087;-82
2023/06/21 03:05:28;;;;;;;18.45;16.65;;;;;;;22.43;83.54;99300.31;5055075;28;20021;-83
2023/06/21 03:07:54;;;;;;;18.63;16.88;;;;;;;22.27;83.45;99276.31;5054698;28;20029;-83
2023/06/21 03:10:20;;;;;;;18.83;17.05;;;;;;;22.26;83.33;99272.00;5055033;28;20083;-82
2023/06/21 03:12:46;;;;;;;19.98;18.10;;;;;;;22.21;83.31;99269.81;5054629;28;20033;-83
2023/06/21 03:15:11;;;;;;;18.75;17.05;;;;;;;22.29;83.64;99283.13;5054587;28;20029;-83
2023/06/21 03:17:38;;;;;;;19.52;17.52;;;;;;;22.47;83.85;99322.06;5054766;28;20062;-82
2023/06/21 03:20:09;;;;;;;19.48;16.65;;;;;;;22.27;83.69;99294.88;5053135;28;20024;-82
2023/06/21 03:22:35;;;;;;;18.63;16.77;;;;;;;22.52;83.81;99338.34;5053260;28;20060;-83
2023/06/21 03:25:00;;;;;;;18.20;16.27;;;;;;;22.46;83.70;99334.50;5054165;28;20110;-83
2023/06/21 03:27:27;;;;;;;18.15;16.35;;;;;;;22.50;84.03;99337.66;5054616;28;20331;-82
2023/06/21 03:29:52;;;;;;;20.00;18.02;;;;;;;22.37;83.38;99303.56;5054525;28;20025;-83
2023/06/21 03:32:17;;;;;;;18.70;16.90;;;;;;;22.42;83.52;99318.03;5054212;28;20059;-82
2023/06/21 03:34:42;;;;;;;18.55;16.75;;;;;;;22.48;83.28;99324.53;5054121;28;20041;-82
2023/06/21 03:37:08;;;;;;;19.95;18.05;;;;;;;22.50;83.76;99330.53;5052943;28;20025;-82
2023/06/21 03:39:33;;;;;;;18.95;17.15;;;;;;;22.55;83.96;99340.69;5054133;28;20044;-83
2023/06/21 03:41:58;;;;;;;19.83;17.67;;;;;;;22.52;84.05;99341.81;5052986;28;20112;-82
2023/06/21 03:44:24;;;;;;;19.55;17.58;;;;;;;22.32;83.62;99304.03;5054455;28;20123;-82
2023/06/21 03:46:49;;;;;;;19.33;17.50;;;;;;;22.54;83.85;99334.53;5054112;28;20239;-83
2023/06/21 03:49:14;;;;;;;18.00;16.30;;;;;;;22.34;83.67;99302.06;5054221;28;20036;-82
2023/06/21 03:51:40;;;;;;;18.50;16.80;;;;;;;22.44;83.65;99315.22;5054117;28;20025;-82
2023/06/21 03:54:05;;;;;;;20.75;18.52;;;;;;;22.63;83.84;99340.75;5054087;28;20032;-82
2023/06/21 03:56:30;;;;;;;19.08;17.27;;;;;;;22.41;83.86;99307.56;5054534;28;20040;-83
2023/06/21 03:58:56;;;;;;;18.83;17.13;;;;;;;22.60;83.84;99322.47;5053930;28;20028;-82
2023/06/21 04:01:22;;;;;;;18.10;16.35;;;;;;;22.44;83.71;99301.97;5054070;28;20552;-82
2023/06/21 04:03:48;;;;;;;18.27;16.38;;;;;;;22.58;84.11;99327.91;5053591;28;20028;-82
2023/06/21 04:06:13;;;;;;;18.95;17.15;;;;;;;22.62;84.06;99323.13;5053888;28;20374;-83
2023/06/21 04:08:38;;;;;;;18.48;16.65;;;;;;;22.59;84.28;99313.69;5053777;28;20384;-82
2023/06/21 04:11:04;;;;;;;17.38;15.60;;;;;;;22.52;84.40;99301.19;5052952;28;20075;-82
2023/06/21 04:13:29;;;;;;;17.80;15.98;;;;;;;22.53;84.67;99292.22;5054286;28;20458;-82
2023/06/21 04:15:55;;;;;;;17.75;16.13;;;;;;;22.60;84.50;99302.06;5052364;28;20025;-83
2023/06/21 04:18:20;;;;;;;19.25;17.33;;;;;;;22.51;84.51;99278.28;5052366;28;20090;-82
2023/06/21 04:20:46;;;;;;;19.33;17.48;;;;;;;22.58;84.25;99298.72;5053453;28;20029;-82
2023/06/21 04:23:11;;;;;;;19.10;17.10;;;;;;;22.58;84.64;99298.72;5053603;28;20415;-82
2023/06/21 04:25:37;;;;;;;18.60;16.70;;;;;;;22.65;84.44;99320.16;5053823;28;20025;-82
2023/06/21 04:28:02;;;;;;;17.70;15.65;;;;;;;22.71;84.60;99311.56;5053645;28;20032;-82
2023/06/21 04:30:32;;;;;;;18.08;16.45;;;;;;;22.67;84.40;99316.38;5053501;28;20075;-82
2023/06/21 04:32:59;;;;;;;17.42;15.73;;;;;;;22.76;84.11;99311.94;5053222;28;20064;-83
2023/06/21 04:35:24;;;;;;;16.92;15.27;;;;;;;22.80;84.12;99317.78;5052097;28;20036;-82
2023/06/21 04:37:50;;;;;;;16.75;14.70;;;;;;;22.97;83.89;99324.88;5053190;28;20036;-83
2023/06/21 04:40:17;;;;;;;16.63;15.02;;;;;;;22.94;83.85;99321.69;5053352;28;20115;-83
2023/06/21 04:42:45;;;;;;;17.02;15.45;;;;;;;22.90;83.86;99308.72;5053293;28;20021;-82
2023/06/21 04:45:15;;;;;;;17.98;15.77;;;;;;;22.96;83.52;99304.59;5052826;28;20465;-83
2023/06/21 04:47:41;;;;;;;16.45;14.85;;;;;;;23.05;83.57;99314.28;5053058;28;20112;-83
2023/06/21 04:50:09;;;;;;;16.75;15.25;;;;;;;23.15;83.08;99307.00;5052704;28;20037;-83
2023/06/21 04:52:36;;;;;;;16.42;14.98;;;;;;;23.04;82.88;99285.22;5051391;28;20488;-83
2023/06/21 04:55:01;;;;;;;17.88;16.17;;;;;;;23.13;82.57;99292.22;5052907;28;20025;-83
2023/06/21 04:57:27;;;;;;;16.70;15.00;;;;;;;23.27;82.46;99326.16;5052862;28;20021;-83
2023/06/21 04:59:52;;;;;;;15.95;14.45;;;;;;;23.13;82.58;99311.66;5052634;28;20078;-83
2023/06/21 05:02:17;;;;;;;17.42;15.82;;;;;;;23.32;82.52;99344.28;5051383;28;20056;-83
2023/06/21 05:04:43;;;;;;;16.33;14.73;;;;;;;23.40;82.35;99362.91;5053098;28;20031;-83
2023/06/21 05:07:08;;;;;;;16.90;15.18;;;;;;;23.52;82.34;99387.38;5052352;28;20032;-83
2023/06/21 05:09:33;;;;;;;15.98;14.48;;;;;;;23.53;82.24;99394.34;5052559;28;20108;-83
2023/06/21 05:11:59;;;;;;;16.27;14.77;;;;;;;23.62;82.11;99407.50;5052353;28;20030;-83
2023/06/21 05:14:24;;;;;;;16.83;15.23;;;;;;;23.45;82.62;99392.50;5052606;28;20029;-83
2023/06/21 05:16:49;;;;;;;17.48;15.52;;;;;;;23.46;82.48;99380.84;5052216;28;20048;-83
2023/06/21 05:19:16;;;;;;;15.73;14.27;;;;;;;23.56;82.20;99402.00;5052444;28;20025;-83
2023/06/21 05:21:42;;;;;;;16.40;14.90;;;;;;;23.57;82.10;99407.16;5052185;28;20396;-83
2023/06/21 05:24:07;;;;;;;18.83;16.30;;;;;;;23.46;82.17;99388.00;5052261;28;20025;-83
2023/06/21 05:26:32;;;;;;;18.60;16.73;;;;;;;23.45;82.58;99408.44;5052420;28;20111;-83
2023/06/21 05:28:58;;;;;;;17.83;16.00;;;;;;;23.29;82.98;99387.09;5050662;28;20036;-83
2023/06/21 05:31:23;;;;;;;16.95;15.35;;;;;;;23.30;83.32;99389.63;5052549;28;20021;-83
2023/06/21 05:33:49;;;;;;;17.50;15.93;;;;;;;23.29;83.45;99392.41;5051800;28;20039;-83
2023/06/21 05:36:14;;;;;;;16.60;15.10;;;;;;;23.33;84.14;99417.69;5052322;28;20084;-83
2023/06/21 05:38:39;;;;;;;18.50;16.75;;;;;;;23.27;84.62;99413.84;5052556;28;20029;-83
2023/06/21 05:41:05;;;;;;;19.58;17.75;;;;;;;23.25;85.00;99407.00;5052204;28;20124;-83
2023/06/21 05:43:30;;;;;;;18.17;16.23;;;;;;;23.17;85.26;99397.16;5052267;28;20063;-82
2023/06/21 05:45:56;;;;;;;20.27;17.70;;;;;;;23.16;85.07;99406.97;5052299;28;20041;-83
2023/06/21 05:48:21;;;;;;;19.38;17.42;;;;;;;23.19;85.29;99410.31;5050878;28;20031;-83
2023/06/21 05:50:47;;;;;;;17.35;15.55;;;;;;;23.13;85.38;99412.63;5051935;28;20031;-82
2023/06/21 05:53:12;;;;;;;20.63;18.52;;;;;;;22.85;85.93;99384.53;5050718;28;20057;-83
2023/06/21 05:55:37;;;;;;;19.55;17.58;;;;;;;22.89;85.87;99389.34;5052155;28;20025;-82
2023/06/21 05:58:03;;;;;;;19.88;17.85;;;;;;;23.03;86.92;99417.19;5052167;28;20021;-82
2023/06/21 06:00:30;;;;;;;20.25;18.05;;;;;;;22.90;88.51;99404.31;5051888;28;20523;-83
2023/06/21 06:02:56;;;;;;;20.50;18.48;;;;;;;22.91;91.13;99408.63;5051624;28;20199;-82
2023/06/21 06:05:21;;;;;;;21.33;18.77;;;;;;;22.59;92.39;99356.16;5050208;28;20175;-82
2023/06/21 06:07:47;;;;;;;20.92;17.38;;;;;;;22.76;93.13;99406.69;5051889;28;20040;-82
2023/06/21 06:10:12;;;;;;;20.33;18.33;;;;;;;22.71;93.48;99399.19;5051764;28;20067;-82
2023/06/21 06:12:38;;;;;;;20.38;18.25;;;;;;;22.52;96.29;99389.59;5050454;28;20029;-82
2023/06/21 06:15:04;;;;;;;21.90;19.63;;;;;;;22.41;97.86;99368.59;5051498;28;20492;-82
2023/06/21 06:17:30;;;;;;;20.73;18.20;;;;;;;22.26;99.06;99355.06;5050239;28;20185;-82
2023/06/21 06:19:55;;;;;;;25.45;20.63;;;;;;;22.35;99.92;99374.53;5051418;28;20544;-82
2023/06/21 06:22:21;;;;;;;23.15;20.73;;;;;;;22.25;100.00;99358.72;5051683;28;20095;-82
2023/06/21 06:24:48;;;;;;;24.45;21.80;;;;;;;22.26;100.00;99378.94;5051792;28;20065;-82
2023/06/21 06:27:13;;;;;;;24.50;20.80;;;;;;;22.07;100.00;99376.41;5051424;28;20025;-82
2023/06/21 06:29:39;;;;;;;21.77;19.58;;;;;;;21.98;100.00;99379.97;5051601;28;20037;-82
2023/06/21 06:32:04;;;;;;;22.92;20.65;;;;;;;21.90;100.00;99384.19;5051276;28;20130;-82
2023/06/21 06:34:30;;;;;;;23.67;21.27;;;;;;;21.66;100.00;99349.50;5053035;28;20056;-82
2023/06/21 06:36:55;;;;;;;22.35;19.95;;;;;;;21.76;100.00;99373.28;5055529;28;20021;-82
2023/06/21 06:39:21;;;;;;;22.65;20.25;;;;;;;21.75;100.00;99379.59;5055573;28;20484;-82
2023/06/21 06:41:46;;;;;;;21.55;19.35;;;;;;;21.84;100.00;99365.41;5055490;28;20111;-82
2023/06/21 06:44:11;;;;;;;20.20;18.00;;;;;;;21.71;100.00;99320.72;5055211;28;20045;-82
2023/06/21 06:46:37;;;;;;;20.40;18.50;;;;;;;22.00;100.00;99347.03;5053970;28;20451;-82
2023/06/21 06:49:02;;;;;;;18.67;16.85;;;;;;;21.90;100.00;99346.25;5055051;28;20040;-82
2023/06/21 06:51:27;;;;;;;17.75;15.95;;;;;;;22.04;100.00;99359.00;5055177;28;20025;-82
2023/06/21 06:53:53;;;;;;;19.15;17.27;;;;;;;21.96;100.00;99336.88;5055140;28;20052;-82
2023/06/21 06:56:18;;;;;;;19.73;16.67;;;;;;;22.10;100.00;99352.25;5055178;28;20021;-82
2023/06/21 06:58:43;;;;;;;19.17;17.10;;;;;;;22.25;100.00;99387.91;5053995;28;20032;-82
2023/06/21 07:01:09;;;;;;;17.27;15.68;;;;;;;22.17;100.00;99382.50;5053695;28;20060;-82
2023/06/21 07:03:34;;;;;;;18.30;16.60;;;;;;;22.30;100.00;99406.00;5054004;28;20107;-82
2023/06/21 07:06:00;;;;;;;18.63;16.83;;;;;;;22.40;100.00;99423.50;5053373;28;20021;-82
2023/06/21 07:08:25;;;;;;;19.50;17.50;;;;;;;22.24;100.00;99418.03;5055076;28;20037;-82
2023/06/21 07:10:51;;;;;;;19.70;17.90;;;;;;;22.35;100.00;99468.22;5053554;28;20078;-82
2023/06/21 07:13:17;;;;;;;22.98;20.65;;;;;;;22.04;100.00;99424.47;5053449;28;20068;-82
2023/06/21 07:15:43;;;;;;;23.35;20.83;;;;;;;22.30;100.00;99472.34;5053807;28;20396;-82
2023/06/21 07:18:08;;;;;;;23.50;21.23;;;;;;;22.20;100.00;99463.59;5042908;28;20086;-82
2023/06/21 07:20:34;;;;;;;26.35;23.75;;;;;;;22.19;100.00;99468.06;5045231;28;20053;-82
2023/06/21 07:23:00;;;;;;;25.15;22.42;;;;;;;22.05;100.00;99477.34;5054561;28;20031;-82
2023/06/21 07:25:25;;;;;;;28.05;25.02;;;;;;;21.99;100.00;99477.94;5054720;28;20029;-82
2023/06/21 07:27:50;;;;;;;26.27;23.58;;;;;;;21.73;100.00;99455.75;5054589;28;20036;-82
2023/06/21 07:30:17;;;;;;;25.52;22.98;;;;;;;21.78;100.00;99472.88;5053056;28;20112;-82
2023/06/21 07:32:42;;;;;;;23.20;20.83;;;;;;;21.78;100.00;99475.53;5053110;28;20457;-82
2023/06/21 07:35:08;;;;;;;22.63;20.30;;;;;;;21.95;100.00;99508.38;5054208;28;20128;-82
2023/06/21 07:37:34;;;;;;;22.05;19.88;;;;;;;22.05;100.00;99516.31;5054511;28;20388;-82
2023/06/21 07:40:00;;;;;;;23.65;21.30;;;;;;;22.02;100.00;99487.41;5047925;28;20025;-82
2023/06/21 07:42:26;;;;;;;25.67;22.98;;;;;;;22.17;100.00;99520.44;5051086;28;20113;-83
2023/06/21 07:44:52;;;;;;;31.33;25.40;;;;;;;22.19;100.00;99530.91;5053568;28;20036;-83
2023/06/21 07:47:18;;;;;;;24.95;22.30;;;;;;;21.99;100.00;99501.78;5052949;28;20063;-83
2023/06/21 07:49:43;;;;;;;26.42;23.83;;;;;;;22.06;100.00;99515.31;5071470;28;20132;-83
2023/06/21 07:52:09;;;;;;;26.85;24.23;;;;;;;22.13;100.00;99514.59;5071372;28;20044;-83
2023/06/21 07:54:34;;;;;;;29.65;26.63;;;;;;;22.02;100.00;99496.19;5071524;28;20434;-83
2023/06/21 07:57:00;;;;;;;27.73;25.00;;;;;;;22.01;100.00;99494.53;5071391;28;20024;-83
2023/06/21 07:59:25;;;;;;;28.42;25.70;;;;;;;22.23;100.00;99519.00;5054799;28;20546;-83
2023/06/21 08:01:50;;;;;;;27.27;24.65;;;;;;;22.27;100.00;99510.59;5052534;28;20123;-83
2023/06/21 08:04:16;;;;;;;28.80;25.80;;;;;;;22.42;100.00;99511.75;5050652;28;20131;-83
2023/06/21 08:06:41;;;;;;;25.02;22.02;;;;;;;22.76;100.00;99519.06;5034687;28;20032;-83
2023/06/21 08:09:06;;;;;;;26.63;23.98;;;;;;;22.69;100.00;99504.72;5051082;28;20072;-83
2023/06/21 08:11:32;;;;;;;25.65;23.08;;;;;;;22.86;100.00;99517.13;5051286;28;20029;-83
2023/06/21 08:13:57;;;;;;;27.95;23.92;;;;;;;23.12;100.00;99527.81;5051079;28;20033;-83
2023/06/21 08:16:22;;;;;;;23.63;21.20;;;;;;;23.26;100.00;99525.59;5034492;28;20051;-83
2023/06/21 08:18:48;;;;;;;23.95;21.50;;;;;;;23.22;100.00;99487.88;5051245;28;20033;-83
2023/06/21 08:21:13;;;;;;;22.17;19.98;;;;;;;23.56;100.00;99505.69;5038343;28;20041;-83
2023/06/21 08:23:38;;;;;;;21.60;19.50;;;;;;;23.76;100.00;99500.97;5032365;28;20059;-83
2023/06/21 08:26:04;;;;;;;22.40;20.08;;;;;;;24.18;100.00;99524.06;5033492;28;20060;-83
2023/06/21 08:28:30;;;;;;;21.73;19.58;;;;;;;24.32;100.00;99528.78;5039756;28;20024;-83
2023/06/21 08:30:56;;;;;;;21.50;18.65;;;;;;;24.50;99.49;99532.19;5052996;28;20029;-84
2023/06/21 08:33:21;;;;;;;22.65;20.38;;;;;;;24.63;99.73;99527.19;5051900;28;20036;-83
2023/06/21 08:35:46;;;;;;;20.30;18.27;;;;;;;24.88;98.96;99514.72;5053421;28;20044;-83
2023/06/21 08:38:12;;;;;;;23.13;19.05;;;;;;;25.10;97.23;99507.91;5053096;28;20025;-84
2023/06/21 08:40:38;;;;;;;19.00;16.95;;;;;;;25.29;93.84;99529.91;5053176;28;20036;-84
2023/06/21 08:43:03;;;;;;;20.02;18.05;;;;;;;25.33;93.95;99521.41;5052974;28;20051;-84
2023/06/21 08:45:29;;;;;;;18.17;16.48;;;;;;;25.25;93.56;99508.06;5051694;28;20031;-83
2023/06/21 08:48:01;;;;;;;15.95;14.45;;;;;;;25.50;94.23;99519.53;5052936;28;20025;-84
2023/06/21 08:50:28;;;;;;;16.52;14.93;;;;;;;25.76;92.88;99526.44;5051808;28;20128;-84
2023/06/21 08:52:54;;;;;;;14.30;12.90;;;;;;;25.93;90.67;99537.91;5052989;28;20024;-84
2023/06/21 08:55:22;;;;;;;15.55;14.05;;;;;;;25.98;90.78;99522.22;5053025;28;20029;-83
2023/06/21 08:57:57;;;;;;;15.30;13.80;;;;;;;26.20;90.68;99529.44;5052534;28;20036;-82
2023/06/21 09:00:33;;;;;;;16.88;15.13;;;;;;;26.22;92.92;99534.63;5052668;28;20497;-84
2023/06/21 09:03:19;;;;;;;15.18;13.77;;;;;;;26.54;91.68;99549.63;5052620;28;20033;-84
2023/06/21 09:05:53;;;;;;;13.55;12.15;;;;;;;26.81;89.22;99540.28;5052801;28;20029;-84
2023/06/21 09:08:19;;;;;;;14.80;13.30;;;;;;;26.85;89.19;99523.72;5052381;28;20116;-84
2023/06/21 09:10:48;;;;;;;15.63;13.27;;;;;;;27.24;89.43;99549.47;5052457;28;20100;-84
2023/06/21 09:13:14;;;;;;;15.02;13.52;;;;;;;27.29;86.62;99560.44;5052532;28;20029;-84
2023/06/21 09:15:40;;;;;;;14.60;13.25;;;;;;;27.33;87.76;99552.88;5052998;28;20021;-84
2023/06/21 09:18:05;;;;;;;15.88;14.27;;;;;;;27.22;88.27;99531.91;5051060;28;20029;-84
2023/06/21 09:20:32;;;;;;;15.20;13.77;;;;;;;27.26;86.73;99535.91;5052891;28;20025;-84
2023/06/21 09:22:59;;;;;;;15.23;13.82;;;;;;;27.37;85.32;99551.50;5052617;28;20064;-83
2023/06/21 09:25:25;;;;;;;13.23;11.75;;;;;;;27.22;83.03;99527.44;5052595;28;20032;-84
2023/06/21 09:27:52;;;;;;;13.68;12.38;;;;;;;27.33;84.87;99531.50;5052198;28;20032;-84
2023/06/21 09:30:19;;;;;;;14.02;12.65;;;;;;;27.29;87.63;99512.28;5052171;28;20108;-84
2023/06/21 09:32:44;;;;;;;14.55;12.98;;;;;;;27.45;80.49;99540.72;5052320;28;20028;-84
2023/06/21 09:35:10;;;;;;;13.10;11.80;;;;;;;27.21;79.94;99500.84;5052245;28;20045;-84
2023/06/21 09:37:38;;;;;;;13.68;11.57;;;;;;;27.48;81.50;99531.53;5052341;28;20048;-84
2023/06/21 09:40:04;;;;;;;15.60;12.15;;;;;;;27.42;80.44;99519.69;5052267;28;20029;-84
2023/06/21 09:42:29;;;;;;;13.15;11.85;;;;;;;27.51;78.20;99536.47;5052250;28;20078;-84
2023/06/21 09:44:55;;;;;;;12.07;10.82;;;;;;;27.44;77.33;99531.06;5052119;28;20120;-84
2023/06/21 09:47:22;;;;;;;13.63;12.35;;;;;;;27.44;81.20;99508.81;5051938;28;20056;-84
2023/06/21 09:49:48;;;;;;;13.43;12.02;;;;;;;27.52;80.10;99524.78;5051986;28;20036;-84
2023/06/21 09:52:15;;;;;;;14.15;12.88;;;;;;;27.62;80.37;99525.34;5051649;28;20025;-84
2023/06/21 09:54:41;;;;;;;12.75;11.52;;;;;;;27.72;78.82;99528.53;5052237;28;20067;-84
2023/06/21 09:57:07;;;;;;;13.60;12.30;;;;;;;27.79;81.08;99526.00;5052132;28;20036;-84
2023/06/21 09:59:36;;;;;;;13.75;12.55;;;;;;;27.93;80.26;99530.50;5052154;28;20040;-84
2023/06/21 10:02:02;;;;;;;14.13;12.73;;;;;;;27.97;79.54;99522.94;5052067;28;20025;-84
2023/06/21 10:04:28;;;;;;;14.88;13.43;;;;;;;28.06;79.06;99530.69;5051885;28;20472;-84
2023/06/21 10:06:56;;;;;;;14.15;12.75;;;;;;;28.10;78.69;99520.41;5051842;28;20025;-84
2023/06/21 10:09:22;;;;;;;13.63;12.43;;;;;;;28.13;78.79;99517.38;5051422;28;20033;-84
2023/06/21 10:11:49;;;;;;;14.02;12.57;;;;;;;28.31;78.93;99530.34;5051933;28;20021;-84
2023/06/21 10:14:22;;;;;;;13.70;12.30;;;;;;;28.32;76.72;99519.47;5051775;28;20028;-84
2023/06/21 10:16:52;;;;;;;14.20;12.90;;;;;;;28.41;77.31;99528.22;5051999;28;20029;-84
2023/06/21 10:19:21;;;;;;;13.68;12.43;;;;;;;28.46;77.06;99536.53;5050283;28;20388;-84
2023/06/21 10:21:59;;;;;;;13.75;12.40;;;;;;;28.57;74.78;99527.16;5050382;28;20429;-83
2023/06/21 10:24:36;;;;;;;15.05;13.63;;;;;;;28.59;72.68;99514.41;5050239;28;20496;-84
2023/06/21 10:27:05;;;;;;;13.13;11.82;;;;;;;28.68;74.70;99531.19;5051794;28;20057;-84
2023/06/21 10:29:31;;;;;;;12.65;11.57;;;;;;;28.58;73.01;99507.38;5051770;28;20040;-84
2023/06/21 10:31:59;;;;;;;12.98;11.50;;;;;;;28.79;72.66;99523.47;5051476;28;20108;-84
2023/06/21 10:34:27;;;;;;;14.10;12.73;;;;;;;28.76;73.13;99507.75;5051427;28;20074;-84
2023/06/21 10:37:02;;;;;;;12.23;11.05;;;;;;;28.91;70.89;99526.47;5051785;28;20021;-84
2023/06/21 10:39:32;;;;;;;12.95;11.65;;;;;;;28.94;71.22;99522.53;5051472;28;20033;-84
2023/06/21 10:41:59;;;;;;;15.35;12.13;;;;;;;29.08;70.88;99525.19;5050413;28;20051;-84
2023/06/21 10:44:28;;;;;;;12.57;11.27;;;;;;;28.92;71.96;99495.09;5051314;28;20025;-84
2023/06/21 10:46:55;;;;;;;12.77;11.50;;;;;;;29.14;72.69;99520.06;5052041;28;20098;-84
2023/06/21 10:49:21;;;;;;;14.40;13.00;;;;;;;29.15;71.43;99502.94;5051453;28;20033;-84
2023/06/21 10:51:47;;;;;;;13.70;12.40;;;;;;;29.16;71.87;99493.84;5051567;28;20029;-83
2023/06/21 10:54:13;;;;;;;13.35;12.05;;;;;;;29.01;71.19;99462.63;5051317;28;20044;-84
2023/06/21 10:56:39;;;;;;;13.75;12.57;;;;;;;29.25;72.11;99490.03;5050110;28;20021;-84
2023/06/21 10:59:04;;;;;;;13.30;12.13;;;;;;;29.24;71.71;99473.09;5051257;28;20066;-84
2023/06/21 11:01:29;;;;;;;13.95;12.57;;;;;;;29.46;71.25;99503.38;5051516;28;20412;-84
2023/06/21 11:03:56;;;;;;;14.30;12.50;;;;;;;29.48;71.18;99481.69;5051342;28;20025;-84
2023/06/21 11:06:28;;;;;;;13.73;12.45;;;;;;;29.64;71.21;99504.75;5051079;28;20428;-84
2023/06/21 11:08:54;;;;;;;13.85;12.60;;;;;;;29.60;70.30;99488.19;5051337;28;20036;-84
2023/06/21 11:11:31;;;;;;;13.70;12.35;;;;;;;29.64;70.54;99494.00;5050991;28;20416;-84
2023/06/21 11:14:01;;;;;;;15.55;14.02;;;;;;;29.75;70.00;99498.78;5051318;28;20033;-84